Terminal Aerodrome Forecast
Issued by NWS

Home | Current Version | Previous Version | Text Only | Print | Product List | Glossary On
Versions: 1 2 3 4 5 6 7 8 9 10 11 12 13 14 15
000
FTUS42 KFFC 232239 AAB
TAFRYY
TAF AMD
KRYY 232239Z 2323/2418 12008KT 5SM BR SCT012 BKN040
     FM232300 15008KT 4SM BR BKN025
     FM240300 19006KT 3SM BR OVC004
     FM241500 24008KT P6SM BKN015 OVC030=

USA.gov is the U.S. government's official web portal to all federal, state and local government web resources and services.